Alsip, IL

12:17 PM CDT on July 06, 2015 (GMT -0500)
Southwest Ball Hockey | | Change Station
CLOSE
Current Station
Personal Weather Station
Location: Alsip, IL
Elevation: 617 ft
Nearby Weather Stations

Elev 617 ft 41.68 °N, 87.76 °W | Updated 34 seconds ago

Partly Cloudy
Partly Cloudy
83.7 °F
Feels Like 90 °F
N
2.0
Wind Variable Wind from ESE
Gusts 13.0 mph

Today
High -- | Low -- °F
--% Chance of Precip.
Yesterday
High -- | Low -- °F
Precip. -- in
5:23 AM 8:28 PM
Waning Gibbous, 74% visible
Pressure 29.92 in
Visibility 9.0 miles
Clouds Few 2700 ft
Mostly Cloudy 25000 ft
Heat Index 90 °F
Dew Point 72 °F
Humidity 69%
Rainfall 0.00 in
Snow Depth Not available.
UV 6 out of 12
Pollen 4.00 out of 12
Air Quality Not available.
Flu Activity Not available.
METAR KMDW 061653Z 19015KT 9SM FEW027 BKN250 29/20 A2995 RMK AO2 SLP131 T02890200

More Conditions Fewer Conditions

Pressure 29.92 in
Visibility 9.0 miles
Clouds Few 2700 ft
Mostly Cloudy 25000 ft
Heat Index 90 °F
Dew Point 72 °F
Humidity 69%
Rainfall 0.00 in
Snow Depth Not available.
UV 6 out of 12
Pollen 4.00 out of 12
Air Quality Not available.
Flu Activity Not available.
METAR KMDW 061653Z 19015KT 9SM FEW027 BKN250 29/20 A2995 RMK AO2 SLP131 T02890200

More Conditions Fewer Conditions

10-Day Weather Forecast

×

Almanac

Astronomy

Jul. 06, 2015 Rise Set
Actual Time
Civil Twilight
Nautical Twilight
Astronomical Twilight
Moon
Length of Visible Light
Length of Day
Tomorrow will be .
, % of the Moon is Illuminated

Today's Extremes

State Highs State Lows

Community

WunderPhotos

Upload Photos

1,835,604 photos uploaded!

WunderBlogs® & News

Nearby

Air Quality

  Air Quality AQ Index Pollutant
Not available.

Snow Depth

Station Depth Elevation

Earthquake Activity

City Distance Mag. Time & Date
Minimum magnitude displayed is 2.5.

Coastal Water Temperatures

Place Temperature

Stations

Nearby Weather Stations

Station Location Temp. Windchill Dew Point Humidity Wind Precip. Elev Updated Type